Athens, Greece
Current Conditions -  °F | °C
As of 5:50 PM on Thursday 23 Oct 2014 (Local Time) from LGEL Reporting Station
Few Clouds Few Clouds  
Wind Chill: 18°   Ceiling: Unl
Heat Index: 18°   Visibility: 6mi
Dew Point:   Wind: 16mph
Humidity: 42%   Direction: 310°NW
Pressure: 29.68"   Gusts: NA
Location:  37.98°N, 23.73°E
Report Text: LGEL 231450Z 31014KT 9999 FEW025 18/05 Q1005
Loading
Personal Weather Stations






























Interactive Weather Map New forecast layout! Learn more

10-Day Weather Forecast

Advertisements
Track Severe Weather on mobile